Time;durP1;ratioP1;P1;durP2;ratioP2;P2;SDS_P1;SDS_P2;PMS_P1;PMS_P2;Temp;Humidity;BMP_temperature;BMP_pressure;BME280_temperature;BME280_humidity;BME280_pressure;Samples;Min_cycle;Max_cycle;Signal;HPM_P1;HPM_P2
2022/04/24 00:01:12;;;;;;;8.63;7.82;;;18.30;56.30;;;;;;5033583;28;20028;-59
2022/04/24 00:03:38;;;;;;;9.23;7.82;;;18.40;56.10;;;;;;5033616;28;20025;-59
2022/04/24 00:06:04;;;;;;;7.65;6.88;;;18.40;55.80;;;;;;5032785;28;20022;-61
2022/04/24 00:08:30;;;;;;;8.00;7.30;;;18.40;55.80;;;;;;5033398;28;20043;-64
2022/04/24 00:10:55;;;;;;;7.40;6.63;;;18.40;55.90;;;;;;5033470;28;20017;-59
2022/04/24 00:13:23;;;;;;;6.60;5.90;;;18.40;55.40;;;;;;5033480;28;20397;-64
2022/04/24 00:15:49;;;;;;;7.97;6.68;;;18.40;55.50;;;;;;5033258;28;20104;-58
2022/04/24 00:18:14;;;;;;;8.23;6.13;;;18.40;55.50;;;;;;5033345;28;20124;-66
2022/04/24 00:20:42;;;;;;;8.20;6.90;;;18.50;55.40;;;;;;5033234;28;20017;-65
2022/04/24 00:23:07;;;;;;;7.35;6.60;;;18.40;55.50;;;;;;5032918;28;20043;-59
2022/04/24 00:25:33;;;;;;;8.00;6.22;;;18.40;55.30;;;;;;5033125;28;20116;-61
2022/04/24 00:28:00;;;;;;;8.27;7.07;;;18.30;55.30;;;;;;5032987;28;20112;-61
2022/04/24 00:30:26;;;;;;;8.07;6.30;;;18.40;55.30;;;;;;5033133;28;20475;-59
2022/04/24 00:32:52;;;;;;;6.80;6.10;;;18.30;55.30;;;;;;5033120;28;20053;-59
2022/04/24 00:35:17;;;;;;;7.82;6.57;;;18.20;55.20;;;;;;5033276;28;20478;-60
2022/04/24 00:37:43;;;;;;;7.22;6.55;;;18.20;55.30;;;;;;5032772;28;20537;-59
2022/04/24 00:40:09;;;;;;;6.85;6.00;;;18.30;55.30;;;;;;5033084;28;20548;-60
2022/04/24 00:42:35;;;;;;;6.97;5.38;;;18.20;55.50;;;;;;5032874;28;20083;-59
2022/04/24 00:45:00;;;;;;;6.70;6.00;;;18.20;55.40;;;;;;5031943;28;20025;-59
2022/04/24 00:47:26;;;;;;;6.45;5.72;;;18.20;55.30;;;;;;5032980;28;20034;-59
2022/04/24 00:49:52;;;;;;;7.22;5.50;;;18.20;55.20;;;;;;5033010;28;20060;-57
2022/04/24 00:52:18;;;;;;;8.63;5.85;;;18.20;55.80;;;;;;5032707;28;20037;-60
2022/04/24 00:54:44;;;;;;;8.32;5.57;;;18.20;55.30;;;;;;5032910;28;20025;-64
2022/04/24 00:57:13;;;;;;;5.78;5.28;;;18.20;55.20;;;;;;5033077;28;20029;-58
2022/04/24 00:59:38;;;;;;;7.53;5.07;;;18.20;55.30;;;;;;5032825;28;20014;-66
2022/04/24 01:02:09;;;;;;;5.90;5.25;;;18.20;55.30;;;;;;5032820;28;20033;-61
2022/04/24 01:04:35;;;;;;;5.90;5.25;;;18.20;55.10;;;;;;5033077;28;20027;-57
2022/04/24 01:07:01;;;;;;;9.98;5.00;;;18.20;55.00;;;;;;5032646;28;20033;-59
2022/04/24 01:09:27;;;;;;;6.57;4.95;;;18.20;55.00;;;;;;5032819;28;20037;-63
2022/04/24 01:11:55;;;;;;;5.50;4.93;;;18.20;55.10;;;;;;5026098;28;20035;-61
2022/04/24 01:14:25;;;;;;;7.07;5.00;;;18.20;55.00;;;;;;5032781;28;20041;-59
2022/04/24 01:16:51;;;;;;;6.18;5.40;;;18.10;54.90;;;;;;5034034;28;20053;-58
2022/04/24 01:19:17;;;;;;;5.57;4.95;;;18.10;54.80;;;;;;5036727;28;20025;-59
2022/04/24 01:21:44;;;;;;;7.03;5.50;;;18.10;54.80;;;;;;5036434;28;20029;-59
2022/04/24 01:24:10;;;;;;;5.60;4.95;;;18.10;54.80;;;;;;5036384;28;20018;-58
2022/04/24 01:26:37;;;;;;;6.70;5.20;;;18.10;54.90;;;;;;5036492;28;20405;-55
2022/04/24 01:29:04;;;;;;;6.20;4.80;;;18.00;54.70;;;;;;5036253;28;20529;-59
2022/04/24 01:31:29;;;;;;;5.88;5.13;;;18.00;54.80;;;;;;5036512;28;20069;-59
2022/04/24 01:33:55;;;;;;;5.97;4.93;;;18.00;54.80;;;;;;5036439;28;20037;-59
2022/04/24 01:36:21;;;;;;;5.07;4.65;;;18.00;54.80;;;;;;5036424;28;20095;-56
2022/04/24 01:38:46;;;;;;;6.28;4.90;;;18.00;54.70;;;;;;5036399;28;20027;-59
2022/04/24 01:41:12;;;;;;;6.40;5.18;;;18.00;54.80;;;;;;5036386;28;20017;-60
2022/04/24 01:43:38;;;;;;;4.78;4.25;;;17.90;54.90;;;;;;5036020;28;20061;-59
2022/04/24 01:46:08;;;;;;;7.53;4.57;;;17.90;54.90;;;;;;5036304;28;20029;-65
2022/04/24 01:48:33;;;;;;;5.13;4.63;;;17.90;54.90;;;;;;5035760;28;20034;-59
2022/04/24 01:51:07;;;;;;;5.10;4.60;;;17.90;55.20;;;;;;5035709;28;20079;-60
2022/04/24 01:53:33;;;;;;;9.75;4.90;;;17.90;55.30;;;;;;5035979;28;20395;-58
2022/04/24 01:56:01;;;;;;;5.13;4.72;;;17.90;55.00;;;;;;5035767;28;20495;-59
2022/04/24 01:58:27;;;;;;;6.28;4.72;;;17.80;55.00;;;;;;5036097;28;20029;-62
2022/04/24 02:00:53;;;;;;;4.97;4.47;;;17.80;55.00;;;;;;5036087;28;20494;-58
2022/04/24 02:03:19;;;;;;;5.25;4.70;;;17.80;55.00;;;;;;5036063;28;20032;-57
2022/04/24 02:05:45;;;;;;;5.97;4.63;;;17.80;55.10;;;;;;5035450;28;20028;-57
2022/04/24 02:08:11;;;;;;;5.28;4.80;;;17.80;55.30;;;;;;5035735;28;20029;-58
2022/04/24 02:10:37;;;;;;;4.85;4.35;;;17.80;55.30;;;;;;5035831;28;20104;-59
2022/04/24 02:13:03;;;;;;;4.85;4.30;;;17.70;55.50;;;;;;5035792;28;20052;-57
2022/04/24 02:15:28;;;;;;;5.75;4.78;;;17.70;55.60;;;;;;5035780;28;20025;-57
2022/04/24 02:17:55;;;;;;;5.88;4.00;;;17.70;55.50;;;;;;5035636;28;20482;-58
2022/04/24 02:20:21;;;;;;;4.60;4.20;;;17.60;55.60;;;;;;5035244;28;20037;-59
2022/04/24 02:22:46;;;;;;;4.78;4.38;;;17.60;55.60;;;;;;5035588;28;20113;-59
2022/04/24 02:25:12;;;;;;;4.90;4.43;;;17.60;55.80;;;;;;5035487;28;20566;-65
2022/04/24 02:27:38;;;;;;;5.07;4.40;;;17.60;55.70;;;;;;5034439;28;20494;-62
2022/04/24 02:30:04;;;;;;;6.32;4.40;;;17.60;55.60;;;;;;5035490;28;20506;-60
2022/04/24 02:32:30;;;;;;;5.15;4.65;;;17.60;55.70;;;;;;5035421;28;20022;-57
2022/04/24 02:34:55;;;;;;;5.10;4.35;;;17.50;55.90;;;;;;5034972;28;20540;-59
2022/04/24 02:37:22;;;;;;;4.15;3.75;;;17.50;55.90;;;;;;5035479;28;20028;-59
2022/04/24 02:39:48;;;;;;;4.95;4.45;;;17.60;56.10;;;;;;5035234;28;20021;-57
2022/04/24 02:42:13;;;;;;;5.00;4.50;;;17.50;56.00;;;;;;5035161;28;20083;-57
2022/04/24 02:44:39;;;;;;;4.20;3.80;;;17.50;56.00;;;;;;5033958;28;20037;-59
2022/04/24 02:47:08;;;;;;;5.03;4.28;;;17.50;56.10;;;;;;5035080;28;20031;-59
2022/04/24 02:49:33;;;;;;;5.00;4.60;;;17.50;56.20;;;;;;5034540;28;20059;-61
2022/04/24 02:51:59;;;;;;;4.63;4.22;;;17.40;56.20;;;;;;5035017;28;20067;-58
2022/04/24 02:54:24;;;;;;;5.53;3.88;;;17.40;56.60;;;;;;5035120;28;20091;-65
2022/04/24 02:56:50;;;;;;;5.15;4.53;;;17.40;56.40;;;;;;5034849;28;20105;-59
2022/04/24 02:59:16;;;;;;;5.05;4.25;;;17.30;56.30;;;;;;5035047;28;20540;-60
2022/04/24 03:01:42;;;;;;;4.40;4.00;;;17.30;56.70;;;;;;5034742;28;20021;-58
2022/04/24 03:04:08;;;;;;;4.57;4.13;;;17.30;57.10;;;;;;5034535;28;20030;-58
2022/04/24 03:06:34;;;;;;;5.30;4.80;;;17.30;56.50;;;;;;5034650;28;20067;-57
2022/04/24 03:08:59;;;;;;;4.68;4.28;;;17.30;56.70;;;;;;5034546;28;20072;-60
2022/04/24 03:11:25;;;;;;;7.07;4.88;;;17.20;56.70;;;;;;5034459;28;20026;-57
2022/04/24 03:13:51;;;;;;;7.22;4.53;;;17.20;56.80;;;;;;5034501;28;20026;-58
2022/04/24 03:16:17;;;;;;;6.65;4.75;;;17.10;57.00;;;;;;5034210;28;20022;-57
2022/04/24 03:18:42;;;;;;;4.97;4.47;;;17.10;57.30;;;;;;5034536;28;20021;-59
2022/04/24 03:21:08;;;;;;;6.70;4.90;;;17.10;57.10;;;;;;5034203;28;20104;-59
2022/04/24 03:23:33;;;;;;;5.30;4.85;;;17.10;57.10;;;;;;5034525;28;20018;-57
2022/04/24 03:25:59;;;;;;;4.93;4.53;;;17.10;57.00;;;;;;5034046;28;20511;-59
2022/04/24 03:28:24;;;;;;;6.32;4.90;;;17.00;57.20;;;;;;5034607;28;20558;-59
2022/04/24 03:30:50;;;;;;;5.32;4.78;;;17.10;57.20;;;;;;5033767;28;20028;-61
2022/04/24 03:33:15;;;;;;;5.93;5.07;;;17.00;57.20;;;;;;5034837;28;20032;-58
2022/04/24 03:35:41;;;;;;;5.07;4.65;;;17.00;57.50;;;;;;5033985;28;20069;-59
2022/04/24 03:38:07;;;;;;;5.20;4.70;;;17.10;57.30;;;;;;5034217;28;20025;-57
2022/04/24 03:40:33;;;;;;;4.93;4.43;;;17.00;57.60;;;;;;5034002;28;20037;-57
2022/04/24 03:42:59;;;;;;;5.00;4.60;;;17.10;57.40;;;;;;5034094;28;20017;-58
2022/04/24 03:45:24;;;;;;;6.07;5.13;;;17.10;57.40;;;;;;5033993;28;20025;-57
2022/04/24 03:47:51;;;;;;;5.15;4.65;;;17.00;57.40;;;;;;5033799;28;20029;-59
2022/04/24 03:50:19;;;;;;;4.85;4.40;;;17.00;57.80;;;;;;5033944;28;20422;-57
2022/04/24 03:52:44;;;;;;;5.72;4.90;;;17.00;57.60;;;;;;5034127;28;20379;-57
2022/04/24 03:55:10;;;;;;;5.28;4.78;;;17.00;57.90;;;;;;5033971;28;20466;-59
2022/04/24 03:57:35;;;;;;;5.50;5.00;;;17.00;57.60;;;;;;5033782;28;20025;-64
2022/04/24 04:00:01;;;;;;;6.22;5.25;;;16.80;57.60;;;;;;5033467;28;20497;-58
2022/04/24 04:02:27;;;;;;;5.80;5.13;;;16.90;57.80;;;;;;5033713;28;20493;-57
2022/04/24 04:04:52;;;;;;;5.60;5.05;;;16.80;57.80;;;;;;5033853;28;20096;-60
2022/04/24 04:07:18;;;;;;;6.90;5.22;;;16.90;57.80;;;;;;5033955;28;20025;-58
2022/04/24 04:09:43;;;;;;;5.68;5.25;;;16.90;57.60;;;;;;5033800;28;20029;-57
2022/04/24 04:12:10;;;;;;;5.45;4.95;;;16.80;58.20;;;;;;5033467;28;20021;-63
2022/04/24 04:14:36;;;;;;;5.13;4.72;;;16.90;57.90;;;;;;5033460;28;20022;-62
2022/04/24 04:17:02;;;;;;;5.38;4.97;;;16.90;57.80;;;;;;5033476;28;20475;-64
2022/04/24 04:19:28;;;;;;;5.15;4.75;;;16.90;58.40;;;;;;5033520;28;20036;-62
2022/04/24 04:21:53;;;;;;;4.72;4.32;;;16.90;57.70;;;;;;5033374;28;20402;-65
2022/04/24 04:24:19;;;;;;;7.47;6.00;;;17.00;57.90;;;;;;5033375;28;20025;-65
2022/04/24 04:26:44;;;;;;;6.80;5.55;;;16.90;57.80;;;;;;5033140;28;20033;-65
2022/04/24 04:29:11;;;;;;;5.80;5.28;;;16.80;58.00;;;;;;5033006;28;20029;-65
2022/04/24 04:31:37;;;;;;;5.68;5.03;;;16.80;58.20;;;;;;5033105;28;20411;-65
2022/04/24 04:34:03;;;;;;;8.73;5.47;;;16.80;58.20;;;;;;5033124;28;20483;-65
2022/04/24 04:36:29;;;;;;;5.68;5.18;;;16.80;58.10;;;;;;5033224;28;20029;-65
2022/04/24 04:38:55;;;;;;;5.28;4.78;;;16.80;58.30;;;;;;5033040;28;20387;-65
2022/04/24 04:41:20;;;;;;;5.60;5.03;;;16.80;58.20;;;;;;5033229;28;20033;-65
2022/04/24 04:43:46;;;;;;;6.38;5.78;;;16.70;58.40;;;;;;5032673;28;20386;-57
2022/04/24 04:46:11;;;;;;;5.93;5.43;;;16.70;58.60;;;;;;5025643;28;20022;-57
2022/04/24 04:48:37;;;;;;;6.07;5.57;;;16.70;58.80;;;;;;5023145;28;20415;-65
2022/04/24 04:51:02;;;;;;;5.80;5.20;;;16.70;58.90;;;;;;5024529;28;20498;-57
2022/04/24 04:53:28;;;;;;;6.15;5.60;;;16.70;59.00;;;;;;5015951;28;20108;-59
2022/04/24 04:55:53;;;;;;;6.47;5.95;;;16.60;58.80;;;;;;5032506;28;20032;-59
2022/04/24 04:58:19;;;;;;;6.20;5.70;;;16.60;58.90;;;;;;5029432;28;20037;-60
2022/04/24 05:00:44;;;;;;;6.05;5.50;;;16.60;59.00;;;;;;5028803;28;20036;-58
2022/04/24 05:03:10;;;;;;;8.70;5.93;;;16.60;59.00;;;;;;5029234;28;20044;-59
2022/04/24 05:05:36;;;;;;;7.05;6.13;;;16.50;59.00;;;;;;5029644;28;20079;-57
2022/04/24 05:08:02;;;;;;;7.47;6.18;;;16.50;59.30;;;;;;5029537;28;20033;-61
2022/04/24 05:10:27;;;;;;;7.07;6.10;;;16.60;59.30;;;;;;5029622;28;20018;-59
2022/04/24 05:12:53;;;;;;;6.88;5.90;;;16.60;59.20;;;;;;5029263;28;20051;-64
2022/04/24 05:15:21;;;;;;;7.15;6.55;;;16.60;59.30;;;;;;5029233;28;20119;-64
2022/04/24 05:17:47;;;;;;;6.68;6.10;;;16.60;59.20;;;;;;5034454;28;20025;-65
2022/04/24 05:20:12;;;;;;;6.82;6.22;;;16.70;59.30;;;;;;5032629;28;20044;-65
2022/04/24 05:22:39;;;;;;;8.02;6.03;;;16.60;59.10;;;;;;5032470;28;20030;-64
2022/04/24 05:25:07;;;;;;;7.38;6.75;;;16.60;59.20;;;;;;5032044;28;20088;-64
2022/04/24 05:27:32;;;;;;;6.53;5.88;;;16.60;59.30;;;;;;5030070;28;20017;-61
2022/04/24 05:29:58;;;;;;;6.70;6.10;;;16.60;59.50;;;;;;5021108;28;20033;-65
2022/04/24 05:32:24;;;;;;;7.05;6.45;;;16.50;59.50;;;;;;5012543;28;20022;-64
2022/04/24 05:34:49;;;;;;;7.57;6.82;;;16.60;59.90;;;;;;5028929;28;20104;-63
2022/04/24 05:37:15;;;;;;;8.88;6.72;;;16.50;59.80;;;;;;5031311;28;20036;-63
2022/04/24 05:39:41;;;;;;;7.70;7.00;;;16.50;59.90;;;;;;5032279;28;20475;-60
2022/04/24 05:42:07;;;;;;;7.13;6.43;;;16.50;59.70;;;;;;5031853;28;20076;-64
2022/04/24 05:44:32;;;;;;;8.05;7.35;;;16.60;60.30;;;;;;5031759;28;20017;-64
2022/04/24 05:46:59;;;;;;;7.43;6.82;;;16.60;60.00;;;;;;5032182;28;20021;-62
2022/04/24 05:49:24;;;;;;;7.60;6.93;;;16.60;60.20;;;;;;5047246;28;20049;-61
2022/04/24 05:51:50;;;;;;;8.93;7.35;;;16.60;60.20;;;;;;5052222;28;20470;-62
2022/04/24 05:54:16;;;;;;;7.57;6.88;;;16.70;60.00;;;;;;5046427;28;20415;-61
2022/04/24 05:56:41;;;;;;;7.50;6.82;;;16.70;60.00;;;;;;5028483;28;20109;-60
2022/04/24 05:59:10;;;;;;;7.35;6.65;;;16.80;59.80;;;;;;5016923;28;20490;-61
2022/04/24 06:01:36;;;;;;;7.63;6.97;;;16.80;59.70;;;;;;5032167;28;20049;-57
2022/04/24 06:04:02;;;;;;;7.78;6.68;;;16.80;59.50;;;;;;5034000;28;20120;-64
2022/04/24 06:06:30;;;;;;;7.25;6.60;;;16.80;59.70;;;;;;5027709;28;20030;-61
2022/04/24 06:08:56;;;;;;;7.97;7.28;;;16.80;59.60;;;;;;5035180;28;20474;-62
2022/04/24 06:11:22;;;;;;;7.43;6.82;;;16.80;59.60;;;;;;5035332;28;20028;-64
2022/04/24 06:13:47;;;;;;;8.25;7.03;;;16.80;59.80;;;;;;5020640;28;20041;-64
2022/04/24 06:16:13;;;;;;;7.75;7.07;;;16.80;59.70;;;;;;5017992;28;20018;-62
2022/04/24 06:18:39;;;;;;;7.68;6.88;;;16.80;59.70;;;;;;5018419;28;20033;-60
2022/04/24 06:21:04;;;;;;;7.63;7.03;;;16.90;59.60;;;;;;5033002;28;20025;-62
2022/04/24 06:23:31;;;;;;;10.32;7.00;;;16.80;59.90;;;;;;5034976;28;20053;-66
2022/04/24 06:25:57;;;;;;;7.88;7.18;;;16.80;60.30;;;;;;5021944;28;20034;-65
2022/04/24 06:28:22;;;;;;;7.80;7.10;;;16.80;60.00;;;;;;5030502;28;20045;-57
2022/04/24 06:30:48;;;;;;;9.13;7.18;;;16.80;60.00;;;;;;5040299;28;20025;-57
2022/04/24 06:33:14;;;;;;;8.13;7.13;;;16.80;60.00;;;;;;5028570;28;20687;-57
2022/04/24 06:35:41;;;;;;;8.23;7.47;;;16.90;60.00;;;;;;5032253;28;20495;-65
2022/04/24 06:38:07;;;;;;;10.30;7.30;;;16.90;59.70;;;;;;5035313;28;20017;-55
2022/04/24 06:40:33;;;;;;;8.85;7.95;;;16.90;60.00;;;;;;5052588;28;20039;-65
2022/04/24 06:43:06;;;;;;;8.65;7.85;;;16.80;60.20;;;;;;5037817;28;20029;-55
2022/04/24 06:45:35;;;;;;;8.25;7.47;;;16.80;60.40;;;;;;5024364;28;20029;-59
2022/04/24 06:48:04;;;;;;;7.75;7.05;;;16.80;60.50;;;;;;5025446;28;20755;-60
2022/04/24 06:50:31;;;;;;;8.07;7.28;;;16.80;60.50;;;;;;5033385;28;20079;-65
2022/04/24 06:53:14;;;;;;;8.30;7.50;;;16.90;60.70;;;;;;5029240;28;20483;-57
2022/04/24 06:55:42;;;;;;;8.80;7.90;;;17.00;60.60;;;;;;5026959;28;20412;-59
2022/04/24 06:58:09;;;;;;;8.18;7.47;;;17.00;60.30;;;;;;5031456;28;20033;-62
2022/04/24 07:00:38;;;;;;;8.23;7.47;;;17.10;60.60;;;;;;5029508;28;20033;-63
2022/04/24 07:03:14;;;;;;;8.07;7.35;;;17.10;60.30;;;;;;5033701;28;20548;-65
2022/04/24 07:05:42;;;;;;;8.10;7.38;;;17.20;60.20;;;;;;5031355;28;20040;-64
2022/04/24 07:08:08;;;;;;;9.30;8.30;;;17.20;59.80;;;;;;5031747;28;20061;-62
2022/04/24 07:10:35;;;;;;;9.13;8.32;;;17.30;59.80;;;;;;5033944;28;20096;-63
2022/04/24 07:13:01;;;;;;;9.15;7.70;;;17.30;59.60;;;;;;5033444;28;20109;-62
2022/04/24 07:15:30;;;;;;;8.52;7.70;;;17.20;59.40;;;;;;5034396;28;20029;-58
2022/04/24 07:17:56;;;;;;;8.35;7.53;;;17.30;60.40;;;;;;5034078;28;20467;-60
2022/04/24 07:20:22;;;;;;;8.10;7.05;;;17.30;60.10;;;;;;5026567;28;20091;-62
2022/04/24 07:22:49;;;;;;;8.00;6.95;;;17.40;60.00;;;;;;5031072;28;20470;-59
2022/04/24 07:25:18;;;;;;;8.10;7.40;;;17.50;59.80;;;;;;5027274;28;20034;-58
2022/04/24 07:27:44;;;;;;;8.02;7.35;;;17.50;59.50;;;;;;5025498;28;20117;-65
2022/04/24 07:30:13;;;;;;;7.70;7.00;;;17.60;60.60;;;;;;5030435;28;20109;-59
2022/04/24 07:32:52;;;;;;;8.32;7.53;;;17.60;59.70;;;;;;5029197;28;20135;-64
2022/04/24 07:35:30;;;;;;;7.47;6.78;;;17.70;59.50;;;;;;5031696;28;20072;-63
2022/04/24 07:37:56;;;;;;;8.07;7.05;;;17.70;59.70;;;;;;5026110;28;20387;-58
2022/04/24 07:40:23;;;;;;;8.10;7.30;;;17.80;59.60;;;;;;5029285;28;20026;-59
2022/04/24 07:42:51;;;;;;;10.27;7.03;;;17.80;59.20;;;;;;5029704;28;20026;-56
2022/04/24 07:45:24;;;;;;;7.80;6.97;;;17.80;59.20;;;;;;5023709;28;20368;-56
2022/04/24 07:47:52;;;;;;;7.38;6.65;;;17.80;59.10;;;;;;5025680;28;20032;-63
2022/04/24 07:50:19;;;;;;;8.70;7.80;;;17.90;59.50;;;;;;5025396;28;20025;-57
2022/04/24 07:52:47;;;;;;;8.45;7.65;;;17.90;59.50;;;;;;5026487;28;20475;-54
2022/04/24 07:55:17;;;;;;;8.15;7.35;;;17.90;58.70;;;;;;5026376;28;20514;-54
2022/04/24 07:57:43;;;;;;;7.15;6.53;;;17.90;58.60;;;;;;5029983;28;20355;-56
2022/04/24 08:00:11;;;;;;;7.65;6.95;;;17.90;58.60;;;;;;5030254;28;20042;-57
2022/04/24 08:02:54;;;;;;;9.55;7.15;;;18.00;58.50;;;;;;5031237;28;20017;-58
2022/04/24 08:05:26;;;;;;;8.60;7.80;;;18.00;58.50;;;;;;5031535;28;20021;-63
2022/04/24 08:07:53;;;;;;;8.23;7.50;;;18.00;58.50;;;;;;5035729;28;20075;-55
2022/04/24 08:10:20;;;;;;;8.57;7.32;;;18.00;58.40;;;;;;5032375;28;20029;-63
2022/04/24 08:12:46;;;;;;;9.55;6.45;;;18.00;58.80;;;;;;5027470;28;20053;-61
2022/04/24 08:15:12;;;;;;;7.82;7.07;;;18.10;58.60;;;;;;5030700;28;20063;-54
2022/04/24 08:17:38;;;;;;;7.55;6.93;;;18.10;58.20;;;;;;5022153;28;20502;-63
2022/04/24 08:20:05;;;;;;;8.02;7.25;;;18.10;58.60;;;;;;5032163;28;20033;-59
2022/04/24 08:22:49;;;;;;;10.07;6.88;;;18.10;59.00;;;;;;5025048;28;20011;-64
2022/04/24 08:25:17;;;;;;;8.77;7.32;;;18.20;59.50;;;;;;5023056;28;20112;-57
2022/04/24 08:27:43;;;;;;;8.13;7.40;;;18.20;59.00;;;;;;5021468;28;20097;-55
2022/04/24 08:30:11;;;;;;;7.80;7.07;;;18.20;58.90;;;;;;5026078;28;20565;-67
2022/04/24 08:32:38;;;;;;;7.38;6.68;;;18.20;58.40;;;;;;5022432;28;20026;-57
2022/04/24 08:35:06;;;;;;;7.32;6.47;;;18.20;58.90;;;;;;5027043;28;20486;-57
2022/04/24 08:37:32;;;;;;;8.40;7.60;;;18.30;59.30;;;;;;5022830;28;20076;-58
2022/04/24 08:39:57;;;;;;;7.20;6.60;;;18.30;58.70;;;;;;5029795;28;20502;-66
2022/04/24 08:42:23;;;;;;;7.78;7.07;;;18.30;58.90;;;;;;5029308;28;20048;-63
2022/04/24 08:44:50;;;;;;;8.65;7.30;;;18.30;58.30;;;;;;5025529;28;20387;-53
2022/04/24 08:47:18;;;;;;;7.82;7.13;;;18.30;58.30;;;;;;5026073;28;20051;-59
2022/04/24 08:49:44;;;;;;;6.70;6.10;;;18.40;58.50;;;;;;5027402;28;20048;-62
2022/04/24 08:52:11;;;;;;;7.85;7.07;;;18.40;58.40;;;;;;5027744;28;20033;-58
2022/04/24 08:54:41;;;;;;;9.20;6.22;;;18.40;58.50;;;;;;5026673;28;20014;-64
2022/04/24 08:57:11;;;;;;;7.72;6.93;;;18.40;58.30;;;;;;5029291;28;20072;-66
2022/04/24 08:59:37;;;;;;;7.00;6.28;;;18.40;58.10;;;;;;5026763;28;20493;-56
2022/04/24 09:02:03;;;;;;;8.35;6.90;;;18.40;57.70;;;;;;5030368;28;20033;-62
2022/04/24 09:04:37;;;;;;;8.00;6.80;;;18.40;57.70;;;;;;5031082;28;20025;-66
2022/04/24 09:07:06;;;;;;;7.38;6.68;;;18.40;58.10;;;;;;5026466;28;20366;-65
2022/04/24 09:09:42;;;;;;;7.30;6.60;;;18.40;58.40;;;;;;5030299;28;20034;-58
2022/04/24 09:12:14;;;;;;;6.70;6.00;;;18.40;58.10;;;;;;5031920;28;20061;-62
2022/04/24 09:14:40;;;;;;;10.70;6.15;;;18.50;57.40;;;;;;5029867;28;20026;-64
2022/04/24 09:17:07;;;;;;;7.22;5.97;;;18.40;57.30;;;;;;5026133;28;20048;-63
2022/04/24 09:19:35;;;;;;;7.35;6.53;;;18.50;57.20;;;;;;5030834;28;20021;-58
2022/04/24 09:22:06;;;;;;;7.72;6.95;;;18.40;56.90;;;;;;5021357;28;20060;-57
2022/04/24 09:25:01;;;;;;;8.65;6.72;;;18.30;56.50;;;;;;5024676;28;20025;-57
2022/04/24 09:27:27;;;;;;;7.75;6.20;;;18.30;56.80;;;;;;5030772;28;20117;-58
2022/04/24 09:29:55;;;;;;;7.68;6.97;;;18.40;57.20;;;;;;5030986;28;20590;-59
2022/04/24 09:32:25;;;;;;;7.28;6.68;;;18.40;57.10;;;;;;5030827;28;20481;-60
2022/04/24 09:34:51;;;;;;;6.95;6.25;;;18.40;56.60;;;;;;5011744;28;20030;-63
2022/04/24 09:37:18;;;;;;;8.27;6.35;;;18.40;57.60;;;;;;5030286;28;20483;-55
2022/04/24 09:39:44;;;;;;;8.95;6.18;;;18.40;57.40;;;;;;5027524;28;20037;-57
2022/04/24 09:42:15;;;;;;;8.45;5.72;;;18.50;57.50;;;;;;5025959;28;20423;-56
2022/04/24 09:44:44;;;;;;;10.00;6.68;;;18.50;57.40;;;;;;5033426;28;20565;-58
2022/04/24 09:47:11;;;;;;;7.07;6.38;;;18.50;57.30;;;;;;5033504;28;20476;-67
2022/04/24 09:49:42;;;;;;;7.43;6.72;;;18.50;56.60;;;;;;5033640;28;20055;-65
2022/04/24 09:52:24;;;;;;;8.52;6.07;;;18.50;55.70;;;;;;5026528;28;20026;-65
2022/04/24 09:54:52;;;;;;;7.20;4.90;;;18.50;57.20;;;;;;5032372;28;20032;-65
2022/04/24 09:57:21;;;;;;;5.88;5.28;;;18.50;57.70;;;;;;5029983;28;20036;-57
2022/04/24 09:59:48;;;;;;;8.63;6.22;;;18.50;57.20;;;;;;5029097;28;20053;-60
2022/04/24 10:02:15;;;;;;;9.65;6.63;;;18.50;57.20;;;;;;5027190;28;20029;-56
2022/04/24 10:04:42;;;;;;;7.60;6.60;;;18.50;57.70;;;;;;5030996;28;20475;-60
2022/04/24 10:07:09;;;;;;;9.02;5.05;;;18.40;56.10;;;;;;5029020;28;20040;-66
2022/04/24 10:09:43;;;;;;;6.20;5.70;;;18.40;56.20;;;;;;5025285;28;20036;-56
2022/04/24 10:12:11;;;;;;;6.82;5.63;;;18.40;56.80;;;;;;5024716;28;20057;-62
2022/04/24 10:14:46;;;;;;;7.38;6.68;;;18.40;55.80;;;;;;5023911;28;20049;-56
2022/04/24 10:17:33;;;;;;;7.20;5.75;;;18.30;55.70;;;;;;5029050;28;20052;-56
2022/04/24 10:20:27;;;;;;;6.55;5.63;;;18.30;56.30;;;;;;5029236;28;20033;-58
2022/04/24 10:22:54;;;;;;;6.60;6.00;;;18.20;55.00;;;;;;5027153;28;20087;-57
2022/04/24 10:25:35;;;;;;;6.90;6.30;;;18.10;55.90;;;;;;5025732;28;20037;-56
2022/04/24 10:28:18;;;;;;;6.05;5.53;;;18.20;56.60;;;;;;5027441;28;20033;-54
2022/04/24 10:30:56;;;;;;;6.75;6.10;;;18.30;56.60;;;;;;5029496;28;20017;-54
2022/04/24 10:33:24;;;;;;;6.47;5.97;;;18.40;56.60;;;;;;5029436;28;20029;-59
2022/04/24 10:35:59;;;;;;;8.18;6.50;;;18.40;56.40;;;;;;5029393;28;20037;-57
2022/04/24 10:38:27;;;;;;;5.88;5.28;;;18.40;55.80;;;;;;5032653;28;20025;-53
2022/04/24 10:40:56;;;;;;;6.78;6.13;;;18.40;56.20;;;;;;5024350;28;20025;-51
2022/04/24 10:43:23;;;;;;;8.23;5.80;;;18.50;55.70;;;;;;5026602;28;20437;-61
2022/04/24 10:45:50;;;;;;;5.88;5.32;;;18.50;55.90;;;;;;5031128;28;20029;-64
2022/04/24 10:48:16;;;;;;;10.52;6.55;;;18.50;55.70;;;;;;5028269;28;20038;-61
2022/04/24 10:50:47;;;;;;;7.65;6.05;;;18.50;55.00;;;;;;5031347;28;20367;-56
2022/04/24 10:53:13;;;;;;;7.05;6.18;;;18.50;55.40;;;;;;5031916;28;20052;-63
2022/04/24 10:55:38;;;;;;;7.25;5.80;;;18.50;55.40;;;;;;5029120;28;20064;-58
2022/04/24 10:58:05;;;;;;;8.23;6.07;;;18.60;55.40;;;;;;5032581;28;20021;-53
2022/04/24 11:00:34;;;;;;;6.50;5.90;;;18.50;54.90;;;;;;5029978;28;20310;-54
2022/04/24 11:03:13;;;;;;;7.35;6.63;;;18.60;54.70;;;;;;5031605;28;20104;-53
2022/04/24 11:05:43;;;;;;;8.45;6.40;;;18.60;54.00;;;;;;5031186;28;20494;-56
2022/04/24 11:08:17;;;;;;;6.22;5.40;;;18.50;54.30;;;;;;5028172;28;20124;-63
2022/04/24 11:10:45;;;;;;;9.88;5.45;;;18.50;55.40;;;;;;5029648;28;20029;-57
2022/04/24 11:13:18;;;;;;;7.28;6.28;;;18.60;55.20;;;;;;5026191;28;20057;-54
2022/04/24 11:15:47;;;;;;;7.07;5.85;;;18.50;53.50;;;;;;5032277;28;20075;-61
2022/04/24 11:18:24;;;;;;;6.68;5.65;;;18.50;55.00;;;;;;5031742;28;20501;-60
2022/04/24 11:20:58;;;;;;;5.65;4.43;;;18.60;54.90;;;;;;5031335;28;20029;-64
2022/04/24 11:23:28;;;;;;;6.53;5.78;;;18.70;56.60;;;;;;5032380;28;20024;-58
2022/04/24 11:25:55;;;;;;;6.40;5.82;;;18.80;54.90;;;;;;5033246;28;20034;-55
2022/04/24 11:28:32;;;;;;;6.75;4.68;;;18.80;53.50;;;;;;5033149;28;20025;-64
2022/04/24 11:31:13;;;;;;;8.15;5.38;;;18.70;55.30;;;;;;5023265;28;20455;-52
2022/04/24 11:33:53;;;;;;;9.50;5.53;;;18.80;54.10;;;;;;5027531;28;20025;-57
2022/04/24 11:36:19;;;;;;;6.10;5.50;;;18.80;53.90;;;;;;5030718;28;20040;-56
2022/04/24 11:38:47;;;;;;;9.07;5.72;;;18.70;53.60;;;;;;5032994;28;20021;-60
2022/04/24 11:41:14;;;;;;;6.85;6.05;;;18.70;53.10;;;;;;5024438;28;20033;-52
2022/04/24 11:43:40;;;;;;;6.63;6.03;;;18.70;53.30;;;;;;5025937;28;20021;-60
2022/04/24 11:51:34;;;;;;;5.90;5.35;;;18.80;52.60;;;;;;5029145;28;20032;-58
2022/04/24 11:54:00;;;;;;;7.68;5.97;;;18.70;51.80;;;;;;5027802;28;20033;-55
2022/04/24 11:56:27;;;;;;;7.15;5.70;;;18.70;51.80;;;;;;5030997;28;20456;-65
2022/04/24 11:59:14;;;;;;;6.65;5.95;;;18.70;52.30;;;;;;5030600;28;20116;-64
2022/04/24 12:01:42;;;;;;;9.90;5.18;;;18.70;52.20;;;;;;5030239;28;20425;-57
2022/04/24 12:04:07;;;;;;;6.07;5.30;;;18.70;53.30;;;;;;5030874;28;20030;-63
2022/04/24 12:06:33;;;;;;;7.47;5.78;;;18.80;53.10;;;;;;5030441;28;20030;-58
2022/04/24 12:09:07;;;;;;;6.28;5.60;;;18.80;52.70;;;;;;5030363;28;20042;-62
2022/04/24 12:11:33;;;;;;;6.80;5.85;;;18.90;52.30;;;;;;5017291;28;20024;-61
2022/04/24 12:14:07;;;;;;;6.72;6.05;;;18.90;52.40;;;;;;5034052;28;20103;-55
2022/04/24 12:16:34;;;;;;;6.43;5.82;;;18.90;52.90;;;;;;5025581;28;20033;-54
2022/04/24 12:19:00;;;;;;;5.80;5.30;;;18.90;52.50;;;;;;5031482;28;20029;-56
2022/04/24 12:21:27;;;;;;;8.00;6.13;;;19.00;52.90;;;;;;5030941;28;20025;-61
2022/04/24 12:23:54;;;;;;;7.47;5.35;;;18.90;51.80;;;;;;5033038;28;20100;-56
2022/04/24 12:26:21;;;;;;;6.28;5.70;;;18.80;51.90;;;;;;5029552;28;20398;-56
2022/04/24 12:28:48;;;;;;;7.00;5.53;;;18.80;52.00;;;;;;5021051;28;20077;-54
2022/04/24 12:31:24;;;;;;;5.70;5.20;;;18.80;51.40;;;;;;5032155;28;20018;-65
2022/04/24 12:33:52;;;;;;;6.80;5.28;;;18.80;50.80;;;;;;5031107;28;20041;-65
2022/04/24 12:36:19;;;;;;;8.55;5.18;;;18.80;50.80;;;;;;5029199;28;20033;-64
2022/04/24 12:38:58;;;;;;;6.97;5.30;;;18.80;50.90;;;;;;5025566;28;20034;-59
2022/04/24 12:41:27;;;;;;;5.68;5.18;;;18.90;50.40;;;;;;5024400;28;20459;-66
2022/04/24 12:44:00;;;;;;;7.05;4.82;;;18.90;50.20;;;;;;5025325;28;20502;-59
2022/04/24 12:46:26;;;;;;;5.00;4.60;;;19.00;51.10;;;;;;5024536;28;20026;-58
2022/04/24 12:48:55;;;;;;;5.68;4.70;;;19.00;50.30;;;;;;5029126;28;20065;-56
2022/04/24 12:51:21;;;;;;;6.57;4.85;;;19.00;50.90;;;;;;5032144;28;20022;-60
2022/04/24 12:53:48;;;;;;;5.95;4.93;;;19.00;51.10;;;;;;5033956;28;20029;-57